Time;durP1;ratioP1;P1;durP2;ratioP2;P2;SDS_P1;SDS_P2;PMS_P1;PMS_P2;Temp;Humidity;BMP_temperature;BMP_pressure;BME280_temperature;BME280_humidity;BME280_pressure;Samples;Min_cycle;Max_cycle;Signal;HPM_P1;HPM_P2
2022/07/09 00:02:06;;;;;;;21.87;3.92;;;;;;;20.02;48.29;99524.54;1806289;79;21158;-88
2022/07/09 00:05:13;;;;;;;27.80;3.83;;;;;;;19.91;48.59;99523.57;1803905;79;21173;-88
2022/07/09 00:08:18;;;;;;;33.40;3.47;;;;;;;19.86;48.51;99520.73;1822582;78;21188;-88
2022/07/09 00:11:24;;;;;;;18.40;3.67;;;;;;;19.88;48.53;99526.02;1803010;79;21185;-88
2022/07/09 00:14:30;;;;;;;18.25;3.50;;;;;;;19.90;48.44;99518.25;1811032;78;21178;-89
2022/07/09 00:17:36;;;;;;;29.30;3.92;;;;;;;19.91;48.50;99519.96;1776441;80;21231;-87
2022/07/09 00:20:42;;;;;;;16.93;3.12;;;;;;;19.94;48.51;99525.53;1788349;80;21280;-88
2022/07/09 00:23:48;;;;;;;15.88;3.98;;;;;;;19.96;48.58;99526.97;1808824;79;21223;-88
2022/07/09 00:26:55;;;;;;;18.50;3.75;;;;;;;19.99;49.07;99531.14;1807942;79;21440;-88
2022/07/09 00:30:01;;;;;;;20.02;3.62;;;;;;;19.95;49.21;99537.78;1817232;78;21192;-88
2022/07/09 00:33:06;;;;;;;21.62;3.70;;;;;;;19.93;49.34;99534.41;1822800;78;21197;-88
2022/07/09 00:36:15;;;;;;;33.20;4.30;;;;;;;19.91;49.53;99530.51;1803047;79;21213;-89
2022/07/09 00:39:20;;;;;;;17.98;4.30;;;;;;;19.88;49.63;99531.56;1827715;78;21216;-88
2022/07/09 00:42:27;;;;;;;10.38;3.35;;;;;;;19.82;49.81;99536.76;1827209;78;21209;-88
2022/07/09 00:45:33;;;;;;;18.12;3.42;;;;;;;19.76;50.10;99532.20;1829083;78;21716;-88
2022/07/09 00:48:40;;;;;;;18.87;4.45;;;;;;;19.70;50.20;99533.23;1829011;78;21720;-88
2022/07/09 00:51:45;;;;;;;21.52;4.03;;;;;;;19.63;49.74;99534.81;1828451;78;21164;-88
2022/07/09 00:54:51;;;;;;;19.80;3.60;;;;;;;19.58;50.39;99538.88;1802880;78;21217;-87
2022/07/09 00:57:58;;;;;;;17.07;3.45;;;;;;;19.49;51.15;99529.30;1828596;78;21775;-88
2022/07/09 01:01:03;;;;;;;20.02;4.40;;;;;;;19.40;50.96;99533.03;1828641;78;21216;-88
2022/07/09 01:04:10;;;;;;;20.68;4.65;;;;;;;19.33;50.20;99526.81;1828664;78;21787;-88
2022/07/09 01:07:15;;;;;;;22.27;4.37;;;;;;;19.28;50.05;99533.11;1828762;78;21739;-88
2022/07/09 01:10:21;;;;;;;12.07;3.45;;;;;;;19.20;50.93;99529.94;1827784;78;21898;-87
2022/07/09 01:13:28;;;;;;;19.15;3.62;;;;;;;19.16;51.50;99529.59;1827591;78;21182;-88
2022/07/09 01:16:43;;;;;;;17.10;3.77;;;;;;;19.14;51.60;99527.60;1829234;78;21815;-87
2022/07/09 01:19:49;;;;;;;17.60;4.17;;;;;;;19.08;51.87;99526.69;1827585;78;21208;-87
2022/07/09 01:22:48;;;;;;;12.82;3.77;;;;;;;19.01;52.15;99529.34;1827499;78;21287;-88
2022/07/09 01:25:49;;;;;;;16.57;3.87;;;;;;;18.94;52.37;99525.88;1827365;78;21259;-87
2022/07/09 01:28:55;;;;;;;16.40;3.85;;;;;;;18.87;52.54;99527.44;1828272;78;21212;-88
2022/07/09 01:32:01;;;;;;;13.13;3.95;;;;;;;18.77;52.99;99523.94;1828169;78;21180;-88
2022/07/09 01:35:07;;;;;;;21.05;4.40;;;;;;;18.75;53.24;99525.25;1796272;78;21158;-87
2022/07/09 01:38:13;;;;;;;19.15;4.10;;;;;;;18.70;53.38;99521.01;1793934;80;21272;-88
2022/07/09 01:41:20;;;;;;;15.18;3.85;;;;;;;18.68;53.70;99525.91;1793943;80;21189;-88
2022/07/09 01:44:26;;;;;;;20.08;3.58;;;;;;;18.65;53.95;99523.11;1795536;80;21721;-88
2022/07/09 01:47:31;;;;;;;24.20;3.60;;;;;;;18.63;54.10;99529.42;1795119;80;21550;-87
2022/07/09 01:50:36;;;;;;;15.43;3.40;;;;;;;18.61;54.12;99532.45;1794948;80;21180;-88
2022/07/09 01:53:43;;;;;;;21.87;3.70;;;;;;;18.65;54.04;99535.57;1795785;80;21192;-88
2022/07/09 01:56:49;;;;;;;14.68;3.50;;;;;;;18.70;53.79;99535.70;1795253;80;21800;-88
2022/07/09 01:59:54;;;;;;;23.10;3.72;;;;;;;18.72;53.49;99543.75;1804384;79;21228;-88
2022/07/09 02:03:03;;;;;;;16.37;3.55;;;;;;;18.74;53.27;99541.59;1841976;77;21239;-88
2022/07/09 02:06:07;;;;;;;12.25;3.67;;;;;;;18.74;53.09;99545.74;1845793;77;21178;-87
2022/07/09 02:09:14;;;;;;;29.87;3.77;;;;;;;18.79;52.83;99551.37;1845490;77;21681;-87
2022/07/09 02:12:20;;;;;;;19.95;3.58;;;;;;;18.83;52.29;99541.48;1844358;77;21188;-88
2022/07/09 02:15:26;;;;;;;19.52;3.60;;;;;;;18.95;52.54;99539.47;1843982;77;21177;-88
2022/07/09 02:18:32;;;;;;;18.90;3.33;;;;;;;19.27;52.14;99544.46;1851059;76;21189;-88
2022/07/09 02:21:39;;;;;;;24.75;4.47;;;;;;;19.60;51.33;99545.02;1803958;79;21716;-88
2022/07/09 02:24:44;;;;;;;22.00;3.22;;;;;;;19.99;50.45;99541.70;1826820;78;21847;-89
2022/07/09 02:27:51;;;;;;;31.68;3.45;;;;;;;20.41;49.40;99541.96;1827297;78;21235;-88
2022/07/09 02:30:57;;;;;;;19.85;3.65;;;;;;;20.82;48.40;99541.63;1814551;78;21181;-89
2022/07/09 02:34:03;;;;;;;20.08;3.30;;;;;;;21.19;47.37;99536.98;1842101;77;21204;-88
2022/07/09 02:37:07;;;;;;;22.42;3.65;;;;;;;21.65;46.33;99544.34;1845159;77;21216;-88
2022/07/09 02:40:14;;;;;;;23.95;3.52;;;;;;;22.13;45.37;99554.13;1845063;77;21239;-88
2022/07/09 02:43:20;;;;;;;19.55;3.17;;;;;;;22.58;44.16;99549.28;1843717;77;21592;-88
2022/07/09 02:46:26;;;;;;;30.60;3.87;;;;;;;22.99;43.01;99546.63;1845887;77;21165;-89
2022/07/09 02:49:32;;;;;;;27.25;3.80;;;;;;;23.30;42.31;99546.11;1845616;77;21150;-88
2022/07/09 02:52:38;;;;;;;29.00;5.45;;;;;;;23.59;41.63;99553.92;1845472;77;21197;-88
2022/07/09 02:55:45;;;;;;;23.70;4.75;;;;;;;23.71;41.90;99548.36;1845197;77;21213;-88
2022/07/09 02:58:52;;;;;;;29.90;6.33;;;;;;;23.74;42.59;99543.32;1848111;76;21200;-88
2022/07/09 03:01:58;;;;;;;25.20;5.60;;;;;;;23.92;42.81;99545.52;1803644;79;21161;-88
2022/07/09 03:05:05;;;;;;;34.23;6.35;;;;;;;24.13;42.51;99554.11;1797422;78;21164;-88
2022/07/09 03:08:12;;;;;;;25.72;6.95;;;;;;;24.27;42.60;99549.32;1771927;81;21185;-88
2022/07/09 03:11:17;;;;;;;18.20;7.87;;;;;;;24.38;43.18;99551.84;1770135;81;21343;-89
2022/07/09 03:14:23;;;;;;;16.35;8.70;;;;;;;24.43;44.54;99555.17;1780258;79;21205;-89
2022/07/09 03:17:23;;;;;;;28.60;9.98;;;;;;;24.43;46.52;99550.41;1826210;78;21221;-88
2022/07/09 03:20:29;;;;;;;33.98;9.55;;;;;;;24.41;47.84;99553.21;1826544;78;21164;-88
2022/07/09 03:23:36;;;;;;;16.80;9.43;;;;;;;24.37;48.23;99549.31;1827495;78;21815;-88
2022/07/09 03:26:42;;;;;;;39.83;11.28;;;;;;;24.22;48.19;99549.61;1826998;78;21275;-88
2022/07/09 03:29:50;;;;;;;39.98;10.38;;;;;;;24.09;48.94;99545.19;1819882;78;21169;-88
2022/07/09 03:32:56;;;;;;;26.85;10.32;;;;;;;24.01;50.86;99549.98;1843026;77;21129;-88
2022/07/09 03:36:05;;;;;;;33.20;10.00;;;;;;;24.08;52.70;99547.14;1845822;77;21157;-88
2022/07/09 03:39:11;;;;;;;28.38;10.80;;;;;;;24.20;52.98;99540.69;1840823;77;21498;-88
2022/07/09 03:42:17;;;;;;;25.32;9.88;;;;;;;24.38;53.00;99537.03;1829694;78;21197;-89
2022/07/09 03:45:17;;;;;;;43.33;11.10;;;;;;;24.52;53.14;99533.06;1856285;77;21083;-89
2022/07/09 03:48:10;;;;;;;24.40;9.58;;;;;;;24.68;53.29;99535.47;1812637;79;22504;-88
2022/07/09 03:50:57;;;;;;;31.23;10.35;;;;;;;24.81;52.76;99532.61;1812032;79;21795;-88
2022/07/09 03:53:49;;;;;;;25.32;10.28;;;;;;;24.87;52.39;99532.84;1857240;77;21201;-89
2022/07/09 03:56:55;;;;;;;27.93;9.95;;;;;;;24.94;52.33;99530.56;1810905;79;21192;-88
2022/07/09 04:00:01;;;;;;;28.45;9.85;;;;;;;25.01;52.38;99533.03;1840494;77;21141;-88
2022/07/09 04:03:09;;;;;;;38.17;12.37;;;;;;;25.04;52.65;99535.26;1810635;79;21173;-88
2022/07/09 04:06:14;;;;;;;57.43;14.33;;;;;;;25.12;52.74;99542.20;1828411;78;21687;-89
2022/07/09 04:09:21;;;;;;;59.33;15.63;;;;;;;25.21;52.75;99553.89;1838941;78;21725;-88
2022/07/09 04:12:28;;;;;;;61.75;15.25;;;;;;;25.23;52.09;99546.05;1838131;78;21242;-89
2022/07/09 04:15:34;;;;;;;53.95;14.87;;;;;;;25.12;52.36;99549.20;1828386;78;21171;-89
2022/07/09 04:18:43;;;;;;;36.33;13.90;;;;;;;25.04;53.19;99545.61;1830003;78;21199;-89
2022/07/09 04:21:46;;;;;;;32.05;13.75;;;;;;;24.99;53.44;99552.08;1830333;78;21177;-89
2022/07/09 04:24:51;;;;;;;45.08;13.93;;;;;;;25.01;53.44;99554.01;1829385;78;21197;-88
2022/07/09 04:28:05;;;;;;;32.35;14.43;;;;;;;25.00;53.12;99556.54;1828987;78;21194;-88
2022/07/09 04:31:07;;;;;;;40.85;13.18;;;;;;;25.00;53.66;99562.14;1830079;78;21203;-88
2022/07/09 04:34:13;;;;;;;38.80;13.08;;;;;;;25.01;54.22;99554.01;1829425;78;21205;-88
2022/07/09 04:37:18;;;;;;;39.83;12.98;;;;;;;25.02;54.53;99552.88;1828857;78;21178;-88
2022/07/09 04:40:24;;;;;;;34.63;12.93;;;;;;;24.94;54.40;99545.95;1838017;76;21209;-88
2022/07/09 04:43:31;;;;;;;43.68;12.75;;;;;;;24.83;55.08;99540.70;1845150;77;21191;-88
2022/07/09 04:46:37;;;;;;;35.08;13.68;;;;;;;24.81;56.08;99536.80;1843897;77;21700;-88
2022/07/09 04:49:44;;;;;;;30.10;11.38;;;;;;;24.85;56.96;99536.50;1854710;76;21137;-88
2022/07/09 04:52:50;;;;;;;33.28;11.25;;;;;;;24.97;57.42;99527.73;1791565;79;21149;-88
2022/07/09 04:55:57;;;;;;;25.15;10.72;;;;;;;25.16;57.71;99528.75;1828038;78;21763;-88
2022/07/09 04:59:02;;;;;;;26.37;11.40;;;;;;;25.41;58.00;99529.69;1826383;78;21180;-88
2022/07/09 05:02:08;;;;;;;27.10;10.53;;;;;;;25.56;57.55;99533.75;1822182;78;21181;-88
2022/07/09 05:05:15;;;;;;;26.42;9.85;;;;;;;25.67;56.71;99530.27;1769917;81;21351;-88
2022/07/09 05:08:21;;;;;;;29.65;11.18;;;;;;;25.74;56.22;99521.81;1771977;81;21256;-88
2022/07/09 05:11:27;;;;;;;15.60;9.30;;;;;;;25.83;55.94;99525.38;1795501;80;21196;-89
2022/07/09 05:14:33;;;;;;;23.60;10.30;;;;;;;25.93;55.99;99529.50;1795399;79;21265;-89
2022/07/09 05:17:44;;;;;;;25.90;9.43;;;;;;;26.10;56.03;99518.63;1795702;80;21265;-89
2022/07/09 05:20:50;;;;;;;20.35;9.90;;;;;;;26.30;54.82;99529.33;1795941;80;22431;-89
2022/07/09 05:23:56;;;;;;;23.18;9.78;;;;;;;26.38;54.30;99514.08;1824519;78;21180;-88
2022/07/09 05:27:04;;;;;;;22.22;9.20;;;;;;;26.48;54.13;99520.16;1784308;80;21141;-88
2022/07/09 05:30:10;;;;;;;21.23;10.03;;;;;;;26.68;53.74;99522.70;1796325;79;21147;-88
2022/07/09 05:33:19;;;;;;;28.30;9.85;;;;;;;26.89;52.66;99519.59;1796285;80;21233;-88
2022/07/09 05:36:25;;;;;;;14.95;9.18;;;;;;;27.09;52.40;99506.67;1794462;80;21210;-88
2022/07/09 05:39:32;;;;;;;22.75;9.90;;;;;;;27.23;51.79;99505.33;1795690;80;21170;-88
2022/07/09 05:42:37;;;;;;;24.75;9.20;;;;;;;27.40;51.62;99508.41;1802322;78;21185;-88
2022/07/09 05:45:43;;;;;;;23.95;9.05;;;;;;;27.52;49.79;99506.51;1845438;77;21748;-89
2022/07/09 05:48:51;;;;;;;21.52;9.20;;;;;;;27.53;50.43;99502.59;1847027;77;21169;-89
2022/07/09 05:52:03;;;;;;;21.50;8.65;;;;;;;27.51;49.76;99493.61;1855649;76;22244;-80
2022/07/09 05:55:10;;;;;;;25.75;9.45;;;;;;;27.44;49.83;99500.22;1749331;82;21187;-80
2022/07/09 05:58:17;;;;;;;18.80;8.88;;;;;;;27.46;49.63;99502.97;1754843;81;21831;-80
2022/07/09 06:01:16;;;;;;;22.70;9.85;;;;;;;27.57;49.74;99498.56;1715506;83;21388;-79
2022/07/09 06:04:24;;;;;;;22.13;9.95;;;;;;;27.67;49.27;99496.42;1735086;82;21188;-79
2022/07/09 06:07:30;;;;;;;23.25;9.50;;;;;;;27.73;49.07;99492.41;1746156;82;21205;-79
2022/07/09 06:10:35;;;;;;;19.82;8.60;;;;;;;27.87;49.58;99496.63;1745694;82;21812;-79
2022/07/09 06:13:43;;;;;;;22.20;9.28;;;;;;;28.02;48.96;99484.25;1745462;82;21311;-79
2022/07/09 06:16:48;;;;;;;23.52;8.50;;;;;;;28.17;48.54;99482.53;1715455;83;21235;-79
2022/07/09 06:19:55;;;;;;;18.05;8.90;;;;;;;28.38;47.40;99480.16;1714936;83;22277;-80
2022/07/09 06:23:00;;;;;;;23.22;8.40;;;;;;;28.63;46.62;99481.57;1714798;83;21208;-79
2022/07/09 06:26:07;;;;;;;15.35;8.10;;;;;;;28.88;45.58;99479.30;1715069;83;21259;-79
2022/07/09 06:29:12;;;;;;;26.97;8.20;;;;;;;29.00;43.10;99473.41;1708408;83;22435;-79
2022/07/09 06:32:18;;;;;;;25.68;8.70;;;;;;;29.05;43.06;99471.05;1688389;85;21308;-80
2022/07/09 06:35:23;;;;;;;19.73;7.60;;;;;;;29.18;42.05;99466.52;1687770;85;21277;-80
2022/07/09 06:38:29;;;;;;;18.62;7.70;;;;;;;29.18;42.05;99466.52;1689234;85;21217;-79
2022/07/09 06:41:35;;;;;;;20.62;7.20;;;;;;;29.31;41.78;99472.63;1689122;85;21259;-79
2022/07/09 06:44:42;;;;;;;18.37;6.95;;;;;;;29.47;39.39;99475.89;1701348;83;21259;-79
2022/07/09 06:47:48;;;;;;;13.13;6.95;;;;;;;29.53;38.40;99462.75;1714733;83;21200;-79
2022/07/09 06:50:55;;;;;;;13.28;7.28;;;;;;;29.56;38.99;99461.31;1713474;83;21246;-80
2022/07/09 06:54:02;;;;;;;19.57;7.55;;;;;;;29.66;39.51;99448.36;1762480;81;21255;-80
2022/07/09 06:57:09;;;;;;;27.50;8.05;;;;;;;29.79;38.58;99447.43;1764378;81;21117;-81
2022/07/09 07:00:15;;;;;;;26.75;7.25;;;;;;;29.84;38.34;99456.32;1749867;81;21200;-80
2022/07/09 07:03:21;;;;;;;23.98;7.17;;;;;;;29.98;38.14;99447.75;1742806;82;21193;-81
2022/07/09 07:06:27;;;;;;;16.23;6.25;;;;;;;30.08;35.34;99440.41;1742053;82;21291;-81
2022/07/09 07:09:32;;;;;;;11.25;6.12;;;;;;;30.08;34.25;99437.59;1742800;82;21974;-80
2022/07/09 07:12:40;;;;;;;23.90;7.75;;;;;;;30.16;33.32;99441.05;1741505;82;21240;-80
2022/07/09 07:15:49;;;;;;;26.62;8.65;;;;;;;30.21;35.00;99428.20;1732908;82;21181;-80
2022/07/09 07:18:55;;;;;;;22.32;7.92;;;;;;;30.38;36.59;99430.79;1738050;82;21533;-80
2022/07/09 07:22:01;;;;;;;18.05;5.65;;;;;;;30.50;36.49;99429.58;1737361;82;21228;-80
2022/07/09 07:25:08;;;;;;;23.45;6.03;;;;;;;30.58;32.68;99425.08;1737863;82;21201;-80
2022/07/09 07:28:15;;;;;;;18.15;5.60;;;;;;;30.65;32.35;99427.67;1738926;82;21189;-80
2022/07/09 07:31:22;;;;;;;18.92;4.60;;;;;;;30.82;31.35;99418.98;1738613;82;21914;-80
2022/07/09 07:34:29;;;;;;;18.10;3.67;;;;;;;30.94;30.63;99414.33;1737655;82;21209;-80
2022/07/09 07:37:35;;;;;;;11.65;4.45;;;;;;;31.02;28.35;99417.73;1737737;81;21232;-80
2022/07/09 07:40:42;;;;;;;8.85;4.15;;;;;;;31.08;28.87;99416.15;1766228;81;21209;-80
2022/07/09 07:43:47;;;;;;;18.45;4.67;;;;;;;31.08;28.40;99411.91;1763675;81;21201;-80
2022/07/09 07:46:54;;;;;;;15.20;5.37;;;;;;;31.16;29.09;99397.78;1731519;82;21205;-80
2022/07/09 07:50:00;;;;;;;15.25;4.17;;;;;;;31.38;28.10;99402.39;1731569;82;21208;-80
2022/07/09 07:53:09;;;;;;;9.15;3.47;;;;;;;31.58;27.69;99392.96;1738192;80;21216;-80
2022/07/09 07:56:15;;;;;;;6.33;3.10;;;;;;;31.84;25.42;99402.76;1745582;82;21193;-81
2022/07/09 07:59:23;;;;;;;7.90;3.65;;;;;;;31.99;25.25;99412.08;1751550;81;21205;-80
2022/07/09 08:02:28;;;;;;;8.95;3.62;;;;;;;32.11;25.55;99402.28;1766547;81;21871;-80
2022/07/09 08:05:34;;;;;;;18.77;3.60;;;;;;;32.20;26.09;99405.89;1766519;81;21202;-80
2022/07/09 08:08:39;;;;;;;7.42;3.37;;;;;;;32.24;25.20;99406.87;1754671;81;21177;-80
2022/07/09 08:11:38;;;;;;;12.73;4.03;;;;;;;32.18;25.99;99413.05;1746042;82;21184;-80
2022/07/09 08:14:44;;;;;;;16.90;4.75;;;;;;;32.06;26.12;99414.63;1763171;80;21177;-80
2022/07/09 08:17:49;;;;;;;22.58;4.95;;;;;;;31.96;27.04;99408.53;1781971;80;21200;-80
2022/07/09 08:20:56;;;;;;;15.28;4.22;;;;;;;31.99;26.06;99404.41;1782136;80;21181;-80
2022/07/09 08:24:04;;;;;;;15.58;4.67;;;;;;;31.99;26.45;99393.10;1780651;80;21658;-80
2022/07/09 08:27:10;;;;;;;14.25;4.15;;;;;;;32.11;26.76;99392.38;1782082;80;21181;-80
2022/07/09 08:30:16;;;;;;;9.78;4.03;;;;;;;32.34;24.98;99400.56;1782219;80;21290;-80
2022/07/09 08:33:21;;;;;;;13.13;4.53;;;;;;;32.54;24.75;99394.11;1781285;80;21213;-80
2022/07/09 08:36:27;;;;;;;9.68;3.62;;;;;;;32.59;25.04;99391.07;1782487;80;21208;-80
2022/07/09 08:39:33;;;;;;;11.03;3.85;;;;;;;32.62;24.65;99398.06;1782494;80;21201;-81
2022/07/09 08:42:38;;;;;;;9.80;3.10;;;;;;;32.62;24.50;99390.39;1782097;80;21198;-81
2022/07/09 08:45:44;;;;;;;14.93;3.85;;;;;;;32.54;23.72;99394.94;1781932;80;21188;-80
2022/07/09 08:48:51;;;;;;;15.25;3.27;;;;;;;32.37;23.24;99378.67;1782204;80;21768;-80
2022/07/09 08:51:57;;;;;;;17.62;3.27;;;;;;;32.35;23.70;99386.66;1782102;80;21791;-80
2022/07/09 08:55:03;;;;;;;9.35;2.30;;;;;;;32.42;23.24;99374.22;1750008;81;21204;-81
2022/07/09 08:58:08;;;;;;;8.33;2.15;;;;;;;32.44;22.19;99372.72;1751336;80;21252;-80
2022/07/09 09:01:15;;;;;;;7.87;2.27;;;;;;;32.42;22.20;99371.39;1751304;82;21205;-80
2022/07/09 09:04:21;;;;;;;8.20;2.30;;;;;;;32.34;22.20;99379.34;1740301;82;21165;-81
2022/07/09 09:07:27;;;;;;;9.43;2.33;;;;;;;32.28;22.46;99374.48;1751795;82;21247;-81
2022/07/09 09:10:34;;;;;;;7.42;2.12;;;;;;;32.39;22.51;99361.61;1751246;82;21564;-81
2022/07/09 09:13:54;;;;;;;13.13;2.20;;;;;;;32.61;22.15;99360.44;1750163;80;22499;-81
2022/07/09 09:16:59;;;;;;;10.50;2.47;;;;;;;32.83;21.61;99365.70;1746215;82;22468;-81
2022/07/09 09:20:05;;;;;;;10.45;2.70;;;;;;;32.97;21.72;99355.53;1744282;82;21180;-80
2022/07/09 09:23:12;;;;;;;15.28;2.37;;;;;;;33.13;21.51;99359.96;1750157;80;22382;-80
2022/07/09 09:26:22;;;;;;;16.87;2.75;;;;;;;33.22;21.36;99357.86;1766764;81;21194;-81
2022/07/09 09:29:29;;;;;;;8.38;2.33;;;;;;;33.34;21.50;99340.05;1765892;81;21230;-81
2022/07/09 09:32:33;;;;;;;13.60;2.65;;;;;;;33.57;20.97;99341.28;1746172;81;21257;-80
2022/07/09 09:35:41;;;;;;;7.37;2.17;;;;;;;33.64;21.46;99339.86;1766757;81;21170;-81
2022/07/09 09:38:46;;;;;;;14.07;2.72;;;;;;;33.74;21.57;99335.16;1755938;80;21188;-81
2022/07/09 09:41:53;;;;;;;8.08;2.52;;;;;;;33.86;21.47;99335.73;1747786;82;21192;-80
2022/07/09 09:44:59;;;;;;;15.65;2.77;;;;;;;33.85;20.93;99332.08;1747011;82;21192;-80
2022/07/09 09:48:05;;;;;;;26.87;2.90;;;;;;;33.82;22.13;99325.69;1747229;82;21239;-80
2022/07/09 09:51:11;;;;;;;11.68;1.87;;;;;;;33.91;21.37;99321.31;1744851;82;21275;-80
2022/07/09 09:54:16;;;;;;;10.32;1.98;;;;;;;33.86;21.09;99323.80;1744979;82;21250;-80
2022/07/09 09:57:27;;;;;;;15.20;3.08;;;;;;;33.81;21.42;99319.19;1745800;82;21200;-80
2022/07/09 10:00:29;;;;;;;15.78;2.40;;;;;;;33.82;21.42;99315.16;1744858;80;21200;-80
2022/07/09 10:03:35;;;;;;;9.35;2.00;;;;;;;33.78;21.61;99317.09;1746674;82;21985;-80
2022/07/09 10:06:41;;;;;;;13.70;2.55;;;;;;;33.64;21.66;99308.08;1746035;82;21180;-80
2022/07/09 10:09:47;;;;;;;13.75;2.50;;;;;;;33.67;21.80;99305.14;1745947;82;21196;-80
2022/07/09 10:12:53;;;;;;;6.37;2.05;;;;;;;33.72;21.21;99307.14;1744385;82;21228;-80
2022/07/09 10:16:02;;;;;;;11.33;2.27;;;;;;;33.72;21.19;99317.06;1744862;82;21235;-80
2022/07/09 10:19:09;;;;;;;7.22;1.92;;;;;;;33.65;21.58;99311.17;1746682;82;21192;-80
2022/07/09 10:22:14;;;;;;;9.50;2.33;;;;;;;33.65;21.60;99297.59;1744353;82;21196;-80
2022/07/09 10:25:30;;;;;;;5.37;2.08;;;;;;;33.76;22.32;99306.67;1744354;82;21220;-80
2022/07/09 10:28:36;;;;;;;8.00;2.00;;;;;;;33.94;22.11;99312.09;1724707;82;21208;-80
2022/07/09 10:31:43;;;;;;;15.98;2.35;;;;;;;33.93;22.37;99307.61;1772185;81;21216;-80
2022/07/09 10:35:14;;;;;;;12.85;2.50;;;;;;;33.96;22.48;99292.14;1771336;81;21216;-80
2022/07/09 10:38:14;;;;;;;11.12;2.70;;;;;;;34.07;21.95;99299.59;1772716;81;21172;-81
2022/07/09 10:41:06;;;;;;;9.95;2.65;;;;;;;33.95;22.03;99297.58;1778756;80;21732;-80
2022/07/09 10:44:12;;;;;;;11.97;2.62;;;;;;;33.77;22.20;99306.90;1774093;80;21248;-80
2022/07/09 10:47:19;;;;;;;12.93;2.72;;;;;;;33.68;22.74;99295.45;1746535;82;21212;-81
2022/07/09 10:50:24;;;;;;;14.53;3.00;;;;;;;33.75;22.31;99290.84;1746599;82;21168;-81
2022/07/09 10:53:27;;;;;;;22.48;3.17;;;;;;;33.74;22.48;99279.28;1746811;82;21196;-81
2022/07/09 10:56:33;;;;;;;10.43;2.45;;;;;;;33.80;22.50;99280.67;1745894;82;21228;-80
2022/07/09 10:59:39;;;;;;;7.90;2.20;;;;;;;33.99;22.75;99277.84;1745058;82;21231;-81
2022/07/09 11:02:45;;;;;;;14.15;2.85;;;;;;;34.11;22.14;99275.55;1744554;82;21756;-81
2022/07/09 11:05:52;;;;;;;14.55;3.15;;;;;;;34.16;22.27;99275.30;1770783;80;21231;-81
2022/07/09 11:08:58;;;;;;;7.87;2.17;;;;;;;34.23;22.28;99267.02;1780834;80;21192;-81
2022/07/09 11:12:04;;;;;;;16.55;3.10;;;;;;;34.28;22.28;99259.08;1779387;80;21815;-81
2022/07/09 11:15:10;;;;;;;16.75;2.98;;;;;;;34.24;22.25;99258.14;1757967;80;21221;-81
2022/07/09 11:18:20;;;;;;;11.57;3.20;;;;;;;34.26;22.49;99260.05;1738116;82;21189;-81
2022/07/09 11:21:33;;;;;;;9.08;2.45;;;;;;;34.32;22.23;99250.08;1749714;82;21216;-80
2022/07/09 11:24:38;;;;;;;11.00;2.35;;;;;;;34.31;22.56;99240.52;1751860;82;21252;-81
2022/07/09 11:27:48;;;;;;;9.60;2.98;;;;;;;34.39;22.32;99239.52;1751796;82;21177;-81
2022/07/09 11:30:55;;;;;;;10.80;2.70;;;;;;;34.31;22.05;99247.61;1762082;80;21204;-81
2022/07/09 11:34:11;;;;;;;13.28;3.30;;;;;;;34.24;22.68;99247.39;1783647;80;21385;-81
2022/07/09 11:37:18;;;;;;;11.53;3.42;;;;;;;34.25;22.55;99234.28;1765285;80;21187;-81
2022/07/09 11:40:26;;;;;;;18.82;3.90;;;;;;;34.32;22.44;99240.74;1783053;80;21439;-80
2022/07/09 11:43:32;;;;;;;14.63;2.62;;;;;;;34.27;22.73;99232.48;1783127;80;21770;-81
2022/07/09 11:46:38;;;;;;;18.40;3.40;;;;;;;34.30;22.60;99218.98;1781726;80;21714;-81
2022/07/09 11:49:51;;;;;;;8.45;2.62;;;;;;;34.48;23.15;99220.34;1783144;80;21179;-80
2022/07/09 11:52:57;;;;;;;17.48;2.92;;;;;;;34.71;22.38;99219.16;1783762;80;21184;-80
2022/07/09 11:56:12;;;;;;;13.40;3.12;;;;;;;34.80;21.67;99204.80;1782746;80;21229;-80
2022/07/09 11:59:18;;;;;;;12.80;3.35;;;;;;;34.83;22.10;99209.75;1780238;80;21223;-80
2022/07/09 12:02:43;;;;;;;16.87;3.72;;;;;;;34.85;22.58;99198.84;1781468;80;21208;-80
2022/07/09 12:05:50;;;;;;;9.55;3.27;;;;;;;34.84;22.81;99198.62;1782313;80;21181;-80
2022/07/09 12:08:56;;;;;;;27.73;3.58;;;;;;;34.83;23.14;99193.53;1781580;80;21232;-80
2022/07/09 12:12:03;;;;;;;13.72;3.25;;;;;;;34.92;22.98;99192.53;1768376;80;21804;-80
2022/07/09 12:15:10;;;;;;;19.23;2.70;;;;;;;35.06;22.26;99185.23;1783136;80;21552;-80
2022/07/09 12:18:22;;;;;;;12.82;3.98;;;;;;;35.20;21.36;99179.08;1782950;80;21680;-80
2022/07/09 12:21:29;;;;;;;8.15;2.60;;;;;;;35.18;21.65;99170.69;1782619;80;21247;-80
2022/07/09 12:24:36;;;;;;;12.55;2.77;;;;;;;35.12;21.90;99172.98;1784014;80;21204;-80
2022/07/09 12:27:42;;;;;;;10.50;2.08;;;;;;;35.14;22.26;99169.16;1782838;80;21173;-80
2022/07/09 12:30:47;;;;;;;12.45;2.75;;;;;;;35.17;21.63;99164.18;1748197;80;21224;-80
2022/07/09 12:33:53;;;;;;;16.20;2.80;;;;;;;35.18;21.35;99166.42;1745831;82;21177;-79
2022/07/09 12:36:58;;;;;;;34.08;3.47;;;;;;;35.12;21.09;99167.91;1745439;82;21200;-80
2022/07/09 12:40:05;;;;;;;50.00;5.45;;;;;;;34.76;24.34;99189.07;1744976;82;21201;-80
2022/07/09 12:43:11;;;;;;;22.52;3.50;;;;;;;33.67;26.40;99199.64;1757444;80;21192;-80
2022/07/09 12:46:17;;;;;;;20.57;3.77;;;;;;;32.67;28.24;99206.18;1781959;80;21223;-80
2022/07/09 12:49:23;;;;;;;15.93;3.30;;;;;;;31.97;29.75;99208.00;1782058;80;21181;-79
2022/07/09 12:52:31;;;;;;;25.70;3.67;;;;;;;31.67;30.63;99205.21;1781872;80;21871;-80
2022/07/09 12:55:37;;;;;;;13.22;2.50;;;;;;;31.42;29.81;99213.26;1780603;80;21223;-79
2022/07/09 12:58:43;;;;;;;18.77;3.12;;;;;;;31.03;29.83;99235.03;1764827;79;21216;-79
2022/07/09 13:01:51;;;;;;;11.05;2.27;;;;;;;30.44;29.24;99238.48;1731457;82;21181;-79
2022/07/09 13:04:57;;;;;;;15.53;2.12;;;;;;;29.87;29.21;99254.70;1731869;82;21256;-79
2022/07/09 13:08:04;;;;;;;20.82;2.52;;;;;;;29.47;29.08;99271.09;1731036;82;21204;-79
2022/07/09 13:11:09;;;;;;;15.03;2.20;;;;;;;29.15;30.29;99277.09;1732228;82;21185;-79
2022/07/09 13:14:14;;;;;;;30.50;3.50;;;;;;;28.94;33.58;99290.31;1732900;81;21196;-79
2022/07/09 13:17:21;;;;;;;6.50;1.98;;;;;;;28.51;37.19;99298.45;1747141;81;21209;-79
2022/07/09 13:20:30;;;;;;;7.50;1.80;;;;;;;27.78;40.00;99299.02;1765256;81;21185;-79
2022/07/09 13:23:39;;;;;;;6.78;1.62;;;;;;;27.01;41.57;99294.92;1767679;81;21181;-79
2022/07/09 13:26:44;;;;;;;3.25;1.60;;;;;;;26.65;40.94;99287.72;1769067;81;21169;-79
2022/07/09 13:29:50;;;;;;;13.53;2.35;;;;;;;26.43;41.03;99284.16;1769059;81;21543;-79
2022/07/09 13:32:55;;;;;;;6.75;1.75;;;;;;;26.31;42.71;99278.17;1763254;81;21255;-79
2022/07/09 13:36:02;;;;;;;6.75;1.90;;;;;;;26.14;44.64;99278.71;1759732;81;21217;-78
2022/07/09 13:39:06;;;;;;;4.03;1.70;;;;;;;25.97;43.95;99268.59;1769145;81;21229;-79
2022/07/09 13:42:12;;;;;;;3.72;1.40;;;;;;;25.89;42.53;99258.93;1769449;81;21598;-79
2022/07/09 13:45:11;;;;;;;2.05;1.42;;;;;;;25.92;42.04;99273.70;1769445;81;21447;-79
2022/07/09 13:48:04;;;;;;;3.40;1.95;;;;;;;25.88;41.77;99264.84;1768109;81;21257;-79
2022/07/09 13:51:10;;;;;;;7.17;1.72;;;;;;;25.91;40.43;99268.42;1769744;81;21574;-79
2022/07/09 13:54:16;;;;;;;7.37;1.65;;;;;;;26.00;39.61;99294.05;1769180;81;21189;-79
2022/07/09 13:57:21;;;;;;;5.78;1.60;;;;;;;26.09;40.46;99289.17;1767899;81;21256;-79
2022/07/09 14:00:26;;;;;;;4.97;2.10;;;;;;;26.10;40.42;99278.22;1769308;80;21233;-79
2022/07/09 14:03:32;;;;;;;3.60;1.67;;;;;;;26.11;41.60;99270.93;1767767;81;21170;-79
2022/07/09 14:06:40;;;;;;;5.92;1.65;;;;;;;26.07;43.08;99268.47;1767712;81;21221;-79
2022/07/09 14:09:47;;;;;;;5.55;1.90;;;;;;;25.83;45.42;99257.34;1767637;81;21809;-78
2022/07/09 14:12:55;;;;;;;6.00;1.65;;;;;;;25.46;46.08;99263.70;1766521;81;21758;-79
2022/07/09 14:16:02;;;;;;;3.55;1.92;;;;;;;25.14;46.49;99261.58;1768012;80;21194;-81
2022/07/09 14:19:09;;;;;;;5.55;1.75;;;;;;;24.90;49.50;99246.16;1766442;81;21221;-81
2022/07/09 14:22:14;;;;;;;3.50;1.52;;;;;;;24.76;48.33;99249.39;1767839;81;21218;-79
2022/07/09 14:25:21;;;;;;;4.12;1.72;;;;;;;24.72;48.44;99263.95;1766977;81;21214;-79
2022/07/09 14:28:28;;;;;;;4.28;1.52;;;;;;;24.70;47.91;99263.42;1766445;81;21194;-79